createdAt,value
2019-01-28T00:00:39.325Z,85.98
2019-01-28T00:03:55.051Z,86.05
2019-01-28T00:07:10.255Z,86.41
2019-01-28T00:10:25.815Z,86.01
2019-01-28T00:13:41.063Z,86.34
2019-01-28T00:16:56.431Z,86.21
2019-01-28T00:20:12.281Z,86.13
2019-01-28T00:23:27.827Z,86.37
2019-01-28T00:26:43.189Z,86.45
2019-01-28T00:29:58.339Z,86.83
2019-01-28T00:33:13.586Z,86.91
2019-01-28T00:36:28.853Z,86.48
2019-01-28T00:39:44.190Z,85.80
2019-01-28T00:42:59.559Z,86.01
2019-01-28T00:46:14.695Z,86.26
2019-01-28T00:49:30.353Z,85.85
2019-01-28T00:52:45.746Z,85.39
2019-01-28T00:56:00.856Z,85.03
2019-01-28T00:59:16.002Z,84.60
2019-01-28T01:02:31.503Z,84.55
2019-01-28T01:05:46.910Z,84.53
2019-01-28T01:09:02.414Z,84.89
2019-01-28T01:12:17.712Z,84.49
2019-01-28T01:15:32.866Z,84.86
2019-01-28T01:18:48.221Z,84.82
2019-01-28T01:22:03.369Z,85.12
2019-01-28T01:25:18.728Z,85.76
2019-01-28T01:28:34.074Z,85.41
2019-01-28T01:31:49.986Z,85.28
2019-01-28T01:35:06.143Z,85.40
2019-01-28T01:38:21.337Z,85.97
2019-01-28T01:41:36.923Z,86.53
2019-01-28T01:44:52.066Z,86.98
2019-01-28T01:48:07.436Z,88.21
2019-01-28T01:51:22.987Z,88.13
2019-01-28T01:54:38.125Z,87.94
2019-01-28T01:57:53.581Z,88.76
2019-01-28T02:01:08.931Z,88.73
2019-01-28T02:04:24.400Z,89.12
2019-01-28T02:07:39.741Z,88.94
2019-01-28T02:10:55.199Z,88.88
2019-01-28T02:14:10.549Z,89.04
2019-01-28T02:17:25.919Z,88.96
2019-01-28T02:20:59.097Z,89.42
2019-01-28T02:24:12.547Z,89.42
2019-01-28T02:27:26.023Z,89.35
2019-01-28T02:30:39.470Z,89.14
2019-01-28T02:33:53.414Z,88.98
2019-01-28T02:37:06.839Z,88.62
2019-01-28T02:40:20.641Z,88.98
2019-01-28T02:43:34.081Z,88.79
2019-01-28T02:46:47.520Z,88.64
2019-01-28T02:50:00.970Z,88.89
2019-01-28T02:53:14.426Z,88.62
2019-01-28T02:56:27.871Z,88.68
2019-01-28T02:59:41.702Z,88.33
2019-01-28T03:02:55.154Z,88.25
2019-01-28T03:06:08.588Z,88.23
2019-01-28T03:09:22.051Z,87.83
2019-01-28T03:12:35.594Z,87.74
2019-01-28T03:15:49.045Z,87.93
2019-01-28T03:19:02.974Z,87.89
2019-01-28T03:22:16.411Z,87.92
2019-01-28T03:25:29.971Z,87.80
2019-01-28T03:28:43.415Z,88.18
2019-01-28T03:31:57.144Z,87.84
2019-01-28T03:35:11.138Z,87.72
2019-01-28T03:38:24.596Z,87.04
2019-01-28T03:41:38.324Z,87.41
2019-01-28T03:44:51.885Z,87.32
2019-01-28T03:48:05.423Z,87.04
2019-01-28T03:51:18.871Z,86.95
2019-01-28T03:54:32.414Z,86.70
2019-01-28T03:57:46.137Z,86.70
2019-01-28T04:00:59.620Z,87.28
2019-01-28T04:04:13.078Z,87.23
2019-01-28T04:07:26.759Z,87.63
2019-01-28T04:10:40.212Z,88.20
2019-01-28T04:13:53.767Z,88.13
2019-01-28T04:17:07.210Z,88.08
2019-01-28T04:20:21.728Z,88.35
2019-01-28T04:23:35.178Z,87.95
2019-01-28T04:26:48.627Z,88.06
2019-01-28T04:30:03.263Z,88.12
2019-01-28T04:33:17.096Z,88.18
2019-01-28T04:36:30.814Z,88.51
2019-01-28T04:39:44.283Z,88.47
2019-01-28T04:42:57.720Z,88.17
2019-01-28T04:46:11.453Z,88.30
2019-01-28T04:49:25.171Z,88.45
2019-01-28T04:52:38.600Z,88.13
2019-01-28T04:55:52.043Z,88.39
2019-01-28T04:59:05.797Z,88.37
2019-01-28T05:02:19.514Z,88.23
2019-01-28T05:05:32.968Z,88.77
2019-01-28T05:08:46.421Z,88.91
2019-01-28T05:11:59.852Z,88.97
2019-01-28T05:15:14.437Z,88.91
2019-01-28T05:18:28.193Z,88.48
2019-01-28T05:21:41.642Z,88.29
2019-01-28T05:24:55.100Z,88.04
2019-01-28T05:28:08.535Z,87.96
2019-01-28T05:31:22.098Z,88.19
2019-01-28T05:34:35.567Z,88.47
2019-01-28T05:37:49.208Z,88.52
2019-01-28T05:41:02.775Z,88.39
2019-01-28T05:44:16.213Z,88.71
2019-01-28T05:47:29.658Z,88.88
2019-01-28T05:50:43.507Z,88.46
2019-01-28T05:53:56.956Z,88.89
2019-01-28T05:57:10.599Z,88.94
2019-01-28T06:00:31.995Z,89.02
2019-01-28T06:03:45.438Z,89.12
2019-01-28T06:06:58.908Z,88.76
2019-01-28T06:10:12.677Z,88.65
2019-01-28T06:13:26.124Z,88.37
2019-01-28T06:16:39.987Z,88.51
2019-01-28T06:19:53.428Z,88.16
2019-01-28T06:23:06.898Z,88.11
2019-01-28T06:26:21.980Z,88.45
2019-01-28T06:29:35.588Z,88.42
2019-01-28T06:32:49.586Z,88.29
2019-01-28T06:36:03.248Z,88.02
2019-01-28T06:39:16.820Z,88.15
2019-01-28T06:42:30.292Z,87.84
2019-01-28T06:45:43.764Z,87.72
2019-01-28T06:48:57.213Z,87.62
2019-01-28T06:52:10.671Z,87.79
2019-01-28T06:55:24.144Z,87.74
2019-01-28T06:58:37.685Z,87.77
2019-01-28T07:01:51.235Z,87.56
2019-01-28T07:05:05.180Z,87.77
2019-01-28T07:08:18.727Z,87.80
2019-01-28T07:11:32.439Z,87.78
2019-01-28T07:14:45.874Z,87.50
2019-01-28T07:17:59.435Z,87.91
2019-01-28T07:21:12.909Z,88.02
2019-01-28T07:24:26.899Z,88.12
2019-01-28T07:27:40.457Z,88.02
2019-01-28T07:30:54.027Z,88.11
2019-01-28T07:34:07.538Z,88.20
2019-01-28T07:37:21.102Z,88.11
2019-01-28T07:40:34.701Z,88.23
2019-01-28T07:43:48.153Z,88.32
2019-01-28T07:47:01.602Z,87.74
2019-01-28T07:50:15.254Z,87.92
2019-01-28T07:53:28.708Z,87.78
2019-01-28T07:56:42.259Z,88.32
2019-01-28T07:59:55.851Z,88.33
2019-01-28T08:03:09.262Z,88.14
2019-01-28T08:06:22.922Z,88.19
2019-01-28T08:09:36.690Z,88.18
2019-01-28T08:12:50.581Z,88.40
2019-01-28T08:16:04.216Z,88.61
2019-01-28T08:19:17.682Z,88.00
2019-01-28T08:22:31.140Z,88.14
2019-01-28T08:25:44.637Z,87.56
2019-01-28T08:28:58.296Z,87.67
2019-01-28T08:32:11.872Z,87.65
2019-01-28T08:35:26.984Z,87.54
2019-01-28T08:38:40.444Z,87.73
2019-01-28T08:41:53.933Z,87.60
2019-01-28T08:45:08.537Z,87.28
2019-01-28T08:48:22.000Z,87.03
2019-01-28T08:51:36.501Z,87.39
2019-01-28T08:54:49.964Z,87.22
2019-01-28T08:58:03.813Z,87.55
2019-01-28T09:01:17.393Z,88.02
2019-01-28T09:04:30.989Z,87.88
2019-01-28T09:07:44.621Z,88.26
2019-01-28T09:10:58.243Z,88.25
2019-01-28T09:14:11.852Z,88.62
2019-01-28T09:17:25.565Z,88.79
2019-01-28T09:20:39.310Z,89.24
2019-01-28T09:23:52.959Z,89.19
2019-01-28T09:27:06.658Z,89.33
2019-01-28T09:30:22.907Z,89.58
2019-01-28T09:33:36.568Z,89.44
2019-01-28T09:36:50.083Z,89.56
2019-01-28T09:40:05.847Z,89.85
2019-01-28T09:43:19.640Z,89.46
2019-01-28T09:46:33.661Z,89.21
2019-01-28T09:49:47.274Z,88.93
2019-01-28T09:53:00.850Z,89.10
2019-01-28T09:56:14.398Z,89.22
2019-01-28T09:59:27.964Z,88.85
2019-01-28T10:02:41.606Z,88.21
2019-01-28T10:05:55.190Z,88.41
2019-01-28T10:09:10.332Z,87.88
2019-01-28T10:12:24.235Z,87.62
2019-01-28T10:15:38.216Z,87.48
2019-01-28T10:18:51.949Z,87.67
2019-01-28T10:22:05.971Z,88.07
2019-01-28T10:25:20.232Z,87.21
2019-01-28T10:28:33.718Z,86.66
2019-01-28T10:31:47.229Z,86.82
2019-01-28T10:35:00.792Z,87.08
2019-01-28T10:38:16.169Z,86.70
2019-01-28T10:41:29.739Z,86.76
2019-01-28T10:44:43.699Z,86.62
2019-01-28T10:48:00.762Z,86.57
2019-01-28T10:51:12.697Z,86.55
2019-01-28T10:54:26.190Z,85.79
2019-01-28T10:57:39.940Z,86.83
2019-01-28T11:00:53.494Z,86.62
2019-01-28T11:04:07.326Z,86.63
2019-01-28T11:07:21.235Z,86.35
2019-01-28T11:10:35.007Z,85.26
2019-01-28T11:13:49.022Z,84.43
2019-01-28T11:17:03.021Z,83.72
2019-01-28T11:20:17.040Z,84.54
2019-01-28T11:23:32.339Z,84.88
2019-01-28T11:26:46.067Z,84.96
2019-01-28T11:29:59.687Z,84.36
2019-01-28T11:33:13.541Z,82.87
2019-01-28T11:36:27.345Z,84.13
2019-01-28T11:39:41.099Z,83.44
2019-01-28T11:42:54.707Z,82.47
2019-01-28T11:46:08.420Z,82.79
2019-01-28T11:49:22.319Z,82.07
2019-01-28T11:52:36.132Z,81.49
2019-01-28T11:55:49.820Z,81.30
2019-01-28T11:59:03.839Z,81.32
2019-01-28T12:02:17.587Z,79.95
2019-01-28T12:05:31.504Z,81.31
2019-01-28T12:08:45.429Z,81.67
2019-01-28T12:11:59.242Z,81.31
2019-01-28T12:15:13.695Z,80.03
2019-01-28T12:18:27.250Z,79.78
2019-01-28T12:21:40.718Z,80.77
2019-01-28T12:24:54.190Z,81.71
2019-01-28T12:28:07.940Z,82.74
2019-01-28T12:31:21.511Z,83.08
2019-01-28T12:34:39.670Z,82.60
2019-01-28T12:37:50.858Z,83.15
2019-01-28T12:41:04.476Z,82.55
2019-01-28T12:44:18.252Z,83.43
2019-01-28T12:47:31.716Z,84.31
2019-01-28T12:50:45.689Z,83.91
2019-01-28T12:53:59.302Z,84.20
2019-01-28T12:57:12.757Z,84.23
2019-01-28T13:00:31.644Z,84.58
2019-01-28T13:03:45.448Z,83.46
2019-01-28T13:06:59.055Z,83.14
2019-01-28T13:10:15.540Z,83.71
2019-01-28T13:13:29.292Z,83.60
2019-01-28T13:16:42.730Z,83.63
2019-01-28T13:19:56.290Z,83.45
2019-01-28T13:23:09.952Z,82.90
2019-01-28T13:26:23.552Z,82.85
2019-01-28T13:29:37.506Z,82.92
2019-01-28T13:32:52.287Z,83.10
2019-01-28T13:36:09.331Z,84.00
2019-01-28T13:39:21.623Z,83.32
2019-01-28T13:42:35.598Z,83.83
2019-01-28T13:45:49.380Z,84.27
2019-01-28T13:49:03.075Z,83.75
2019-01-28T13:52:16.841Z,84.87
2019-01-28T13:55:30.526Z,85.10
2019-01-28T13:58:44.019Z,85.34
2019-01-28T14:01:57.855Z,85.33
2019-01-28T14:05:11.762Z,84.99
2019-01-28T14:08:25.217Z,84.71
2019-01-28T14:11:38.974Z,84.71
2019-01-28T14:14:52.505Z,84.46
2019-01-28T14:18:10.339Z,84.08
2019-01-28T14:21:23.827Z,82.79
2019-01-28T14:24:37.391Z,83.34
2019-01-28T14:27:50.968Z,83.30
2019-01-28T14:31:04.982Z,82.47
2019-01-28T14:34:18.496Z,82.82
2019-01-28T14:37:32.436Z,82.48
2019-01-28T14:40:46.632Z,82.62
2019-01-28T14:44:00.131Z,81.66
2019-01-28T14:47:13.821Z,81.61
2019-01-28T14:50:29.546Z,82.01
2019-01-28T14:53:43.084Z,80.29
2019-01-28T14:56:56.664Z,81.24
2019-01-28T15:00:12.092Z,80.04
2019-01-28T15:03:25.543Z,80.94
2019-01-28T15:06:39.238Z,82.13
2019-01-28T15:09:53.045Z,82.32
2019-01-28T15:13:06.786Z,82.91
2019-01-28T15:16:20.259Z,83.18
2019-01-28T15:19:33.698Z,83.35
2019-01-28T15:22:47.488Z,84.29
2019-01-28T15:26:01.171Z,84.70
2019-01-28T15:29:15.039Z,85.02
2019-01-28T15:32:28.727Z,85.86
2019-01-28T15:35:42.600Z,86.34
2019-01-28T15:38:56.524Z,86.17
2019-01-28T15:42:10.115Z,86.09
2019-01-28T15:45:26.392Z,86.21
2019-01-28T15:48:40.843Z,86.63
2019-01-28T15:51:54.355Z,86.83
2019-01-28T15:55:10.957Z,87.01
2019-01-28T15:58:24.438Z,87.46
2019-01-28T16:01:38.284Z,87.43
2019-01-28T16:04:51.865Z,87.08
2019-01-28T16:08:06.375Z,87.29
2019-01-28T16:11:19.858Z,87.29
2019-01-28T16:14:33.317Z,87.13
2019-01-28T16:17:46.918Z,87.49
2019-01-28T16:21:00.860Z,87.04
2019-01-28T16:24:14.959Z,87.64
2019-01-28T16:27:28.436Z,87.82
2019-01-28T16:30:42.565Z,87.31
2019-01-28T16:33:56.412Z,87.30
2019-01-28T16:37:11.485Z,87.25
2019-01-28T16:40:25.433Z,87.02
2019-01-28T16:43:39.136Z,87.36
2019-01-28T16:46:52.703Z,87.42
2019-01-28T16:50:07.714Z,87.38
2019-01-28T16:53:22.163Z,87.16
2019-01-28T16:56:35.627Z,86.52
2019-01-28T16:59:49.412Z,86.33
2019-01-28T17:03:04.425Z,85.36
2019-01-28T17:06:18.030Z,85.25
2019-01-28T17:09:31.482Z,85.21
2019-01-28T17:12:44.964Z,84.32
2019-01-28T17:15:58.463Z,83.68
2019-01-28T17:19:12.228Z,82.36
2019-01-28T17:22:26.036Z,82.82
2019-01-28T17:25:44.825Z,82.88
2019-01-28T17:28:58.398Z,82.52
2019-01-28T17:32:12.197Z,82.30
2019-01-28T17:35:25.873Z,82.03
2019-01-28T17:38:39.732Z,81.79
2019-01-28T17:41:53.298Z,81.73
2019-01-28T17:45:09.686Z,80.72
2019-01-28T17:48:23.150Z,81.31
2019-01-28T17:51:37.151Z,81.65
2019-01-28T17:54:50.632Z,80.89
2019-01-28T17:58:05.787Z,80.97
2019-01-28T18:01:19.735Z,81.04
2019-01-28T18:04:34.473Z,80.63
2019-01-28T18:07:47.934Z,80.41
2019-01-28T18:11:01.506Z,80.23
2019-01-28T18:14:15.288Z,79.83
2019-01-28T18:17:28.773Z,79.13
2019-01-28T18:20:42.362Z,79.51
2019-01-28T18:23:55.841Z,79.55
2019-01-28T18:27:09.476Z,79.57
2019-01-28T18:30:28.897Z,79.37
2019-01-28T18:33:42.372Z,79.36
2019-01-28T18:36:55.926Z,79.11
2019-01-28T18:40:10.665Z,78.59
2019-01-28T18:43:24.139Z,78.45
2019-01-28T18:46:37.712Z,78.37
2019-01-28T18:49:51.235Z,79.00
2019-01-28T18:53:05.607Z,79.46
2019-01-28T18:56:19.145Z,79.23
2019-01-28T18:59:32.631Z,78.96
2019-01-28T19:02:46.391Z,78.68
2019-01-28T19:06:22.593Z,78.34
2019-01-28T19:09:40.824Z,78.73
2019-01-28T19:13:11.428Z,78.59
2019-01-28T19:16:44.758Z,78.43
2019-01-28T19:20:21.336Z,78.08
2019-01-28T19:23:34.906Z,78.12
2019-01-28T19:26:48.367Z,78.52
2019-01-28T19:30:02.123Z,78.23
2019-01-28T19:33:15.558Z,78.75
2019-01-28T19:36:29.020Z,78.12
2019-01-28T19:39:42.505Z,78.05
2019-01-28T19:42:56.001Z,78.11
2019-01-28T19:46:09.563Z,77.51
2019-01-28T19:49:23.136Z,78.46
2019-01-28T19:52:36.694Z,78.96
2019-01-28T19:55:50.259Z,78.98
2019-01-28T19:59:03.852Z,79.13
2019-01-28T20:02:17.287Z,78.86
2019-01-28T20:05:31.035Z,78.92
2019-01-28T20:08:44.693Z,79.11
2019-01-28T20:11:58.265Z,79.61
2019-01-28T20:15:13.862Z,79.61
2019-01-28T20:18:27.525Z,79.92
2019-01-28T20:21:40.979Z,80.66
2019-01-28T20:24:54.482Z,80.84
2019-01-28T20:28:08.050Z,80.60
2019-01-28T20:31:21.505Z,80.92
2019-01-28T20:34:43.172Z,80.64
2019-01-28T20:37:50.746Z,81.18
2019-01-28T20:41:04.298Z,82.20
2019-01-28T20:44:17.840Z,81.79
2019-01-28T20:47:31.921Z,82.00
2019-01-28T20:50:45.596Z,81.88
2019-01-28T20:53:59.054Z,81.99
2019-01-28T20:57:12.470Z,82.13
2019-01-28T21:00:26.413Z,81.96
2019-01-28T21:03:40.148Z,82.11
2019-01-28T21:06:53.593Z,82.44
2019-01-28T21:10:09.306Z,82.61
2019-01-28T21:13:22.858Z,82.77
2019-01-28T21:16:36.303Z,82.20
2019-01-28T21:19:50.328Z,82.16
2019-01-28T21:23:03.885Z,81.88
2019-01-28T21:26:17.771Z,81.87
2019-01-28T21:29:31.230Z,81.44
2019-01-28T21:32:44.803Z,81.52
2019-01-28T21:36:17.322Z,82.25
2019-01-28T21:39:30.888Z,82.80
2019-01-28T21:42:44.973Z,82.81
2019-01-28T21:45:58.530Z,83.14
2019-01-28T21:49:12.074Z,82.97
2019-01-28T21:52:25.537Z,83.06
2019-01-28T21:55:39.019Z,82.95
2019-01-28T21:58:52.462Z,82.64
2019-01-28T22:02:06.351Z,82.42
2019-01-28T22:05:19.802Z,82.02
2019-01-28T22:08:33.246Z,81.91
2019-01-28T22:11:46.694Z,81.44
2019-01-28T22:15:00.169Z,81.37
2019-01-28T22:18:13.694Z,81.40
2019-01-28T22:21:27.170Z,81.36
2019-01-28T22:24:40.601Z,81.53
2019-01-28T22:27:57.345Z,81.47
2019-01-28T22:31:10.086Z,81.29
2019-01-28T22:34:23.532Z,80.94
2019-01-28T22:37:36.982Z,80.93
2019-01-28T22:40:50.533Z,80.96
2019-01-28T22:44:04.179Z,80.56
2019-01-28T22:47:17.628Z,80.60
2019-01-28T22:50:31.103Z,80.73
2019-01-28T22:53:44.546Z,80.99
2019-01-28T22:56:58.275Z,81.21
2019-01-28T23:00:43.707Z,81.14
2019-01-28T23:03:59.242Z,80.95
2019-01-28T23:07:14.805Z,80.72
2019-01-28T23:10:30.150Z,81.02
2019-01-28T23:13:45.908Z,80.97
2019-01-28T23:17:01.375Z,81.33
2019-01-28T23:20:16.855Z,81.01
2019-01-28T23:23:32.179Z,81.16
2019-01-28T23:26:47.535Z,80.98
2019-01-28T23:30:02.999Z,81.41
2019-01-28T23:33:18.135Z,80.87
2019-01-28T23:36:33.296Z,81.38
2019-01-28T23:39:48.638Z,81.50
2019-01-28T23:43:03.891Z,81.29
2019-01-28T23:46:19.661Z,80.90
2019-01-28T23:49:35.206Z,80.70
2019-01-28T23:52:50.453Z,80.74
2019-01-28T23:56:05.799Z,80.79
2019-01-28T23:59:21.157Z,80.76
